sensor_id;sensor_type;location;lat;lon;timestamp;temperature;humidity
16128;DHT22;8168;49.036;7.690;2023-04-06T00:02:23;1.70;99.90
16128;DHT22;8168;49.036;7.690;2023-04-06T00:04:53;2.10;99.90
16128;DHT22;8168;49.036;7.690;2023-04-06T00:07:24;1.90;99.90
16128;DHT22;8168;49.036;7.690;2023-04-06T00:09:54;1.60;99.90
16128;DHT22;8168;49.036;7.690;2023-04-06T00:12:25;1.60;99.90
16128;DHT22;8168;49.036;7.690;2023-04-06T00:14:56;1.80;99.90
16128;DHT22;8168;49.036;7.690;2023-04-06T00:17:27;1.50;99.90
16128;DHT22;8168;49.036;7.690;2023-04-06T00:19:58;1.50;99.90
16128;DHT22;8168;49.036;7.690;2023-04-06T00:22:28;1.50;99.90
16128;DHT22;8168;49.036;7.690;2023-04-06T00:24:59;1.50;99.90
16128;DHT22;8168;49.036;7.690;2023-04-06T00:27:30;1.50;99.90
16128;DHT22;8168;49.036;7.690;2023-04-06T00:30:01;1.40;99.90
16128;DHT22;8168;49.036;7.690;2023-04-06T00:32:32;1.40;99.90
16128;DHT22;8168;49.036;7.690;2023-04-06T00:35:04;1.90;99.90
16128;DHT22;8168;49.036;7.690;2023-04-06T00:37:35;1.40;99.90
16128;DHT22;8168;49.036;7.690;2023-04-06T00:40:06;1.30;99.90
16128;DHT22;8168;49.036;7.690;2023-04-06T00:42:37;1.30;99.90
16128;DHT22;8168;49.036;7.690;2023-04-06T00:45:08;1.30;99.90
16128;DHT22;8168;49.036;7.690;2023-04-06T00:47:39;1.30;99.90
16128;DHT22;8168;49.036;7.690;2023-04-06T00:50:09;1.30;99.90
16128;DHT22;8168;49.036;7.690;2023-04-06T00:52:40;1.20;99.90
16128;DHT22;8168;49.036;7.690;2023-04-06T00:55:11;1.50;99.90
16128;DHT22;8168;49.036;7.690;2023-04-06T00:57:42;1.20;99.90
16128;DHT22;8168;49.036;7.690;2023-04-06T01:00:13;1.20;99.90
16128;DHT22;8168;49.036;7.690;2023-04-06T01:02:44;1.20;99.90
16128;DHT22;8168;49.036;7.690;2023-04-06T01:05:15;1.20;99.90
16128;DHT22;8168;49.036;7.690;2023-04-06T01:07:46;1.10;99.90
16128;DHT22;8168;49.036;7.690;2023-04-06T01:10:28;1.10;99.90
16128;DHT22;8168;49.036;7.690;2023-04-06T01:12:58;1.10;99.90
16128;DHT22;8168;49.036;7.690;2023-04-06T01:15:29;1.10;99.90
16128;DHT22;8168;49.036;7.690;2023-04-06T01:18:00;1.10;99.90
16128;DHT22;8168;49.036;7.690;2023-04-06T01:20:31;1.40;99.90
16128;DHT22;8168;49.036;7.690;2023-04-06T01:23:02;1.00;99.90
16128;DHT22;8168;49.036;7.690;2023-04-06T01:25:32;1.00;99.90
16128;DHT22;8168;49.036;7.690;2023-04-06T01:28:03;0.90;99.90
16128;DHT22;8168;49.036;7.690;2023-04-06T01:30:34;1.00;99.90
16128;DHT22;8168;49.036;7.690;2023-04-06T01:33:04;0.90;99.90
16128;DHT22;8168;49.036;7.690;2023-04-06T01:38:06;0.90;99.90
16128;DHT22;8168;49.036;7.690;2023-04-06T01:40:37;0.90;99.90
16128;DHT22;8168;49.036;7.690;2023-04-06T01:43:07;0.80;99.90
16128;DHT22;8168;49.036;7.690;2023-04-06T01:45:38;0.80;99.90
16128;DHT22;8168;49.036;7.690;2023-04-06T01:48:09;0.80;99.90
16128;DHT22;8168;49.036;7.690;2023-04-06T01:53:10;0.70;99.90
16128;DHT22;8168;49.036;7.690;2023-04-06T02:00:43;0.60;99.90
16128;DHT22;8168;49.036;7.690;2023-04-06T02:05:45;0.60;99.90
16128;DHT22;8168;49.036;7.690;2023-04-06T02:08:16;0.60;99.90
16128;DHT22;8168;49.036;7.690;2023-04-06T02:10:46;0.60;99.90
16128;DHT22;8168;49.036;7.690;2023-04-06T02:13:17;0.60;99.90
16128;DHT22;8168;49.036;7.690;2023-04-06T02:15:48;0.60;99.90
16128;DHT22;8168;49.036;7.690;2023-04-06T02:18:18;0.50;99.90
16128;DHT22;8168;49.036;7.690;2023-04-06T02:20:49;0.50;99.90
16128;DHT22;8168;49.036;7.690;2023-04-06T02:25:50;0.50;99.90
16128;DHT22;8168;49.036;7.690;2023-04-06T02:28:21;0.50;99.90
16128;DHT22;8168;49.036;7.690;2023-04-06T02:30:52;0.40;99.90
16128;DHT22;8168;49.036;7.690;2023-04-06T02:33:22;0.40;99.90
16128;DHT22;8168;49.036;7.690;2023-04-06T02:35:53;0.40;99.90
16128;DHT22;8168;49.036;7.690;2023-04-06T02:38:23;0.40;99.90
16128;DHT22;8168;49.036;7.690;2023-04-06T02:40:54;0.30;99.90
16128;DHT22;8168;49.036;7.690;2023-04-06T02:43:25;0.30;99.90
16128;DHT22;8168;49.036;7.690;2023-04-06T02:45:55;0.30;99.90
16128;DHT22;8168;49.036;7.690;2023-04-06T02:50:57;0.30;99.90
16128;DHT22;8168;49.036;7.690;2023-04-06T02:53:28;0.20;99.90
16128;DHT22;8168;49.036;7.690;2023-04-06T03:01:00;0.20;99.90
16128;DHT22;8168;49.036;7.690;2023-04-06T03:03:31;0.10;99.90
16128;DHT22;8168;49.036;7.690;2023-04-06T03:06:01;0.20;99.90
16128;DHT22;8168;49.036;7.690;2023-04-06T03:13:36;0.10;99.90
16128;DHT22;8168;49.036;7.690;2023-04-06T03:21:10;0.10;99.90
16128;DHT22;8168;49.036;7.690;2023-04-06T03:26:12;0.00;99.90
16128;DHT22;8168;49.036;7.690;2023-04-06T03:43:49;-0.10;99.90
16128;DHT22;8168;49.036;7.690;2023-04-06T03:46:21;-0.10;99.90
16128;DHT22;8168;49.036;7.690;2023-04-06T03:56:25;-0.10;99.90
16128;DHT22;8168;49.036;7.690;2023-04-06T04:09:00;-0.20;99.90
16128;DHT22;8168;49.036;7.690;2023-04-06T04:21:42;-0.40;99.90
16128;DHT22;8168;49.036;7.690;2023-04-06T04:24:14;-0.40;99.90
16128;DHT22;8168;49.036;7.690;2023-04-06T04:31:47;-0.40;99.90
16128;DHT22;8168;49.036;7.690;2023-04-06T04:34:18;-0.40;99.90
16128;DHT22;8168;49.036;7.690;2023-04-06T04:36:51;-0.40;99.90
16128;DHT22;8168;49.036;7.690;2023-04-06T04:49:27;-0.50;99.90
16128;DHT22;8168;49.036;7.690;2023-04-06T04:51:57;-0.50;99.90
16128;DHT22;8168;49.036;7.690;2023-04-06T04:54:28;-0.50;99.90
16128;DHT22;8168;49.036;7.690;2023-04-06T04:56:59;-0.50;99.90
16128;DHT22;8168;49.036;7.690;2023-04-06T05:02:01;-0.60;99.90
16128;DHT22;8168;49.036;7.690;2023-04-06T05:04:32;-0.60;99.90
16128;DHT22;8168;49.036;7.690;2023-04-06T05:07:06;-0.60;99.90
16128;DHT22;8168;49.036;7.690;2023-04-06T05:12:08;-0.60;99.90
16128;DHT22;8168;49.036;7.690;2023-04-06T05:19:42;-0.60;99.90
16128;DHT22;8168;49.036;7.690;2023-04-06T05:29:48;-0.60;99.90
16128;DHT22;8168;49.036;7.690;2023-04-06T05:50:00;-0.60;99.90
16128;DHT22;8168;49.036;7.690;2023-04-06T05:55:02;-0.60;99.90
16128;DHT22;8168;49.036;7.690;2023-04-06T06:00:05;-0.50;99.90
16128;DHT22;8168;49.036;7.690;2023-04-06T06:02:38;-0.50;99.90
16128;DHT22;8168;49.036;7.690;2023-04-06T06:07:41;-0.40;99.90
16128;DHT22;8168;49.036;7.690;2023-04-06T06:17:44;-0.20;99.90
16128;DHT22;8168;49.036;7.690;2023-04-06T06:22:46;-0.10;99.90
16128;DHT22;8168;49.036;7.690;2023-04-06T06:25:17;0.00;99.90
16128;DHT22;8168;49.036;7.690;2023-04-06T06:27:47;0.00;99.90
16128;DHT22;8168;49.036;7.690;2023-04-06T06:30:18;0.10;99.90
16128;DHT22;8168;49.036;7.690;2023-04-06T06:32:50;0.10;99.90
16128;DHT22;8168;49.036;7.690;2023-04-06T06:35:20;0.20;99.90
16128;DHT22;8168;49.036;7.690;2023-04-06T06:40:22;0.30;99.90
16128;DHT22;8168;49.036;7.690;2023-04-06T06:42:54;0.40;99.90
16128;DHT22;8168;49.036;7.690;2023-04-06T06:47:55;0.50;99.90
16128;DHT22;8168;49.036;7.690;2023-04-06T06:52:57;0.60;99.90
16128;DHT22;8168;49.036;7.690;2023-04-06T06:55:28;0.60;99.90
16128;DHT22;8168;49.036;7.690;2023-04-06T06:57:59;0.70;99.90
16128;DHT22;8168;49.036;7.690;2023-04-06T07:03:00;0.80;99.90
16128;DHT22;8168;49.036;7.690;2023-04-06T07:05:31;0.90;99.90
16128;DHT22;8168;49.036;7.690;2023-04-06T07:08:02;1.00;99.90
16128;DHT22;8168;49.036;7.690;2023-04-06T07:10:33;1.00;99.90
16128;DHT22;8168;49.036;7.690;2023-04-06T07:13:03;1.10;99.90
16128;DHT22;8168;49.036;7.690;2023-04-06T07:15:34;1.20;99.90
16128;DHT22;8168;49.036;7.690;2023-04-06T07:18:04;1.20;99.90
16128;DHT22;8168;49.036;7.690;2023-04-06T07:20:35;1.30;99.90
16128;DHT22;8168;49.036;7.690;2023-04-06T07:23:06;1.80;99.90
16128;DHT22;8168;49.036;7.690;2023-04-06T07:25:37;1.40;99.90
16128;DHT22;8168;49.036;7.690;2023-04-06T07:28:07;1.60;99.90
16128;DHT22;8168;49.036;7.690;2023-04-06T07:30:38;1.90;99.90
16128;DHT22;8168;49.036;7.690;2023-04-06T07:33:09;1.80;99.90
16128;DHT22;8168;49.036;7.690;2023-04-06T07:35:39;2.10;99.90
16128;DHT22;8168;49.036;7.690;2023-04-06T07:38:10;2.00;99.90
16128;DHT22;8168;49.036;7.690;2023-04-06T07:40:41;2.10;99.90
16128;DHT22;8168;49.036;7.690;2023-04-06T07:43:11;2.20;99.90
16128;DHT22;8168;49.036;7.690;2023-04-06T07:45:42;2.40;99.90
16128;DHT22;8168;49.036;7.690;2023-04-06T07:48:14;2.50;99.90
16128;DHT22;8168;49.036;7.690;2023-04-06T07:50:44;2.60;99.90
16128;DHT22;8168;49.036;7.690;2023-04-06T07:53:15;2.80;99.90
16128;DHT22;8168;49.036;7.690;2023-04-06T07:55:45;2.90;99.90
16128;DHT22;8168;49.036;7.690;2023-04-06T07:58:16;3.20;99.90
16128;DHT22;8168;49.036;7.690;2023-04-06T08:00:47;3.40;99.90
16128;DHT22;8168;49.036;7.690;2023-04-06T08:03:17;3.60;99.90
16128;DHT22;8168;49.036;7.690;2023-04-06T08:05:51;3.70;99.90
16128;DHT22;8168;49.036;7.690;2023-04-06T08:08:23;3.20;99.90
16128;DHT22;8168;49.036;7.690;2023-04-06T08:10:53;4.20;99.90
16128;DHT22;8168;49.036;7.690;2023-04-06T08:13:24;4.80;99.90
16128;DHT22;8168;49.036;7.690;2023-04-06T08:15:55;4.60;99.90
16128;DHT22;8168;49.036;7.690;2023-04-06T08:18:25;4.90;99.90
16128;DHT22;8168;49.036;7.690;2023-04-06T08:20:56;4.80;99.90
16128;DHT22;8168;49.036;7.690;2023-04-06T08:23:27;5.50;99.90
16128;DHT22;8168;49.036;7.690;2023-04-06T08:25:57;5.10;99.90
16128;DHT22;8168;49.036;7.690;2023-04-06T08:28:28;5.20;99.90
16128;DHT22;8168;49.036;7.690;2023-04-06T08:30:59;5.40;99.90
16128;DHT22;8168;49.036;7.690;2023-04-06T08:33:29;5.60;99.90
16128;DHT22;8168;49.036;7.690;2023-04-06T08:36:07;5.90;99.90
16128;DHT22;8168;49.036;7.690;2023-04-06T08:38:38;6.10;99.90
16128;DHT22;8168;49.036;7.690;2023-04-06T08:41:09;6.60;99.90
16128;DHT22;8168;49.036;7.690;2023-04-06T08:43:49;7.00;99.90
16128;DHT22;8168;49.036;7.690;2023-04-06T08:46:23;7.30;99.90
16128;DHT22;8168;49.036;7.690;2023-04-06T08:49:01;7.40;99.90
16128;DHT22;8168;49.036;7.690;2023-04-06T08:51:32;7.60;98.00
16128;DHT22;8168;49.036;7.690;2023-04-06T08:54:03;7.70;97.90
16128;DHT22;8168;49.036;7.690;2023-04-06T08:56:37;7.80;97.50
16128;DHT22;8168;49.036;7.690;2023-04-06T08:59:09;7.90;98.00
16128;DHT22;8168;49.036;7.690;2023-04-06T09:01:40;8.00;98.20
16128;DHT22;8168;49.036;7.690;2023-04-06T09:04:12;8.00;96.90
16128;DHT22;8168;49.036;7.690;2023-04-06T09:06:43;8.10;96.80
16128;DHT22;8168;49.036;7.690;2023-04-06T09:09:14;8.20;96.00
16128;DHT22;8168;49.036;7.690;2023-04-06T09:11:47;8.30;94.60
16128;DHT22;8168;49.036;7.690;2023-04-06T09:14:34;8.40;96.00
16128;DHT22;8168;49.036;7.690;2023-04-06T09:17:06;8.60;94.50
16128;DHT22;8168;49.036;7.690;2023-04-06T09:19:48;8.70;94.20
16128;DHT22;8168;49.036;7.690;2023-04-06T09:22:19;8.80;93.20
16128;DHT22;8168;49.036;7.690;2023-04-06T09:24:52;8.90;93.10
16128;DHT22;8168;49.036;7.690;2023-04-06T09:27:33;9.00;93.70
16128;DHT22;8168;49.036;7.690;2023-04-06T09:30:08;9.20;93.60
16128;DHT22;8168;49.036;7.690;2023-04-06T09:32:50;9.30;93.60
16128;DHT22;8168;49.036;7.690;2023-04-06T09:35:23;9.50;92.70
16128;DHT22;8168;49.036;7.690;2023-04-06T09:37:54;9.60;92.20
16128;DHT22;8168;49.036;7.690;2023-04-06T09:40:25;9.60;91.90
16128;DHT22;8168;49.036;7.690;2023-04-06T09:42:56;9.70;92.70
16128;DHT22;8168;49.036;7.690;2023-04-06T09:45:29;9.80;92.10
16128;DHT22;8168;49.036;7.690;2023-04-06T09:48:01;10.00;90.30
16128;DHT22;8168;49.036;7.690;2023-04-06T09:50:33;10.00;88.20
16128;DHT22;8168;49.036;7.690;2023-04-06T09:53:04;10.10;86.80
16128;DHT22;8168;49.036;7.690;2023-04-06T09:55:41;10.20;88.80
16128;DHT22;8168;49.036;7.690;2023-04-06T09:58:16;10.20;85.80
16128;DHT22;8168;49.036;7.690;2023-04-06T10:01:03;10.20;84.30
16128;DHT22;8168;49.036;7.690;2023-04-06T10:06:18;10.30;83.80
16128;DHT22;8168;49.036;7.690;2023-04-06T10:08:50;10.30;83.50
16128;DHT22;8168;49.036;7.690;2023-04-06T10:11:22;10.30;83.10
16128;DHT22;8168;49.036;7.690;2023-04-06T10:13:53;10.30;85.90
16128;DHT22;8168;49.036;7.690;2023-04-06T10:16:25;10.40;86.80
16128;DHT22;8168;49.036;7.690;2023-04-06T10:19:10;10.50;84.00
16128;DHT22;8168;49.036;7.690;2023-04-06T10:21:46;10.60;84.90
16128;DHT22;8168;49.036;7.690;2023-04-06T10:24:18;10.60;83.70
16128;DHT22;8168;49.036;7.690;2023-04-06T10:27:03;10.70;83.70
16128;DHT22;8168;49.036;7.690;2023-04-06T10:29:47;10.70;81.30
16128;DHT22;8168;49.036;7.690;2023-04-06T10:32:35;10.80;82.40
16128;DHT22;8168;49.036;7.690;2023-04-06T10:35:11;10.80;79.40
16128;DHT22;8168;49.036;7.690;2023-04-06T10:37:47;10.80;84.30
16128;DHT22;8168;49.036;7.690;2023-04-06T10:40:20;11.00;83.40
16128;DHT22;8168;49.036;7.690;2023-04-06T10:42:53;12.10;78.10
16128;DHT22;8168;49.036;7.690;2023-04-06T10:45:25;11.10;77.80
16128;DHT22;8168;49.036;7.690;2023-04-06T10:47:56;11.20;79.20
16128;DHT22;8168;49.036;7.690;2023-04-06T10:50:28;11.20;80.00
16128;DHT22;8168;49.036;7.690;2023-04-06T10:53:01;11.30;78.20
16128;DHT22;8168;49.036;7.690;2023-04-06T10:55:32;11.30;77.40
16128;DHT22;8168;49.036;7.690;2023-04-06T10:58:06;11.30;77.60
16128;DHT22;8168;49.036;7.690;2023-04-06T11:00:47;11.30;78.20
16128;DHT22;8168;49.036;7.690;2023-04-06T11:03:18;11.40;75.00
16128;DHT22;8168;49.036;7.690;2023-04-06T11:05:50;11.50;76.90
16128;DHT22;8168;49.036;7.690;2023-04-06T11:08:29;11.50;75.60
16128;DHT22;8168;49.036;7.690;2023-04-06T11:11:11;11.50;71.90
16128;DHT22;8168;49.036;7.690;2023-04-06T11:13:53;11.50;73.00
16128;DHT22;8168;49.036;7.690;2023-04-06T11:16:28;11.50;74.80
16128;DHT22;8168;49.036;7.690;2023-04-06T11:19:04;11.60;76.80
16128;DHT22;8168;49.036;7.690;2023-04-06T11:21:36;11.60;75.80
16128;DHT22;8168;49.036;7.690;2023-04-06T11:29:28;11.70;78.40
16128;DHT22;8168;49.036;7.690;2023-04-06T11:32:04;11.80;76.70
16128;DHT22;8168;49.036;7.690;2023-04-06T11:34:39;11.90;78.20
16128;DHT22;8168;49.036;7.690;2023-04-06T11:37:11;12.00;73.80
16128;DHT22;8168;49.036;7.690;2023-04-06T11:39:49;11.90;74.30
16128;DHT22;8168;49.036;7.690;2023-04-06T11:42:28;12.00;74.80
16128;DHT22;8168;49.036;7.690;2023-04-06T11:45:00;12.00;75.00
16128;DHT22;8168;49.036;7.690;2023-04-06T11:47:33;11.90;77.40
16128;DHT22;8168;49.036;7.690;2023-04-06T11:50:09;12.00;75.30
16128;DHT22;8168;49.036;7.690;2023-04-06T11:52:41;12.10;74.50
16128;DHT22;8168;49.036;7.690;2023-04-06T11:55:18;12.20;77.10
16128;DHT22;8168;49.036;7.690;2023-04-06T11:57:48;12.30;76.30
16128;DHT22;8168;49.036;7.690;2023-04-06T12:00:20;12.40;75.30
16128;DHT22;8168;49.036;7.690;2023-04-06T12:02:51;12.50;76.60
16128;DHT22;8168;49.036;7.690;2023-04-06T12:05:22;12.60;76.40
16128;DHT22;8168;49.036;7.690;2023-04-06T12:07:53;12.50;74.80
16128;DHT22;8168;49.036;7.690;2023-04-06T12:10:24;12.50;75.50
16128;DHT22;8168;49.036;7.690;2023-04-06T12:12:55;12.50;74.90
16128;DHT22;8168;49.036;7.690;2023-04-06T12:15:25;12.50;73.00
16128;DHT22;8168;49.036;7.690;2023-04-06T12:17:56;12.40;74.80
16128;DHT22;8168;49.036;7.690;2023-04-06T12:20:27;12.50;74.90
16128;DHT22;8168;49.036;7.690;2023-04-06T12:22:57;12.60;72.00
16128;DHT22;8168;49.036;7.690;2023-04-06T12:25:28;12.60;71.40
16128;DHT22;8168;49.036;7.690;2023-04-06T12:27:58;12.50;72.60
16128;DHT22;8168;49.036;7.690;2023-04-06T12:30:29;12.40;73.70
16128;DHT22;8168;49.036;7.690;2023-04-06T12:33:00;12.50;75.70
16128;DHT22;8168;49.036;7.690;2023-04-06T12:35:34;12.50;74.50
16128;DHT22;8168;49.036;7.690;2023-04-06T12:38:05;12.50;73.90
16128;DHT22;8168;49.036;7.690;2023-04-06T12:40:39;12.60;70.70
16128;DHT22;8168;49.036;7.690;2023-04-06T12:43:10;12.60;72.20
16128;DHT22;8168;49.036;7.690;2023-04-06T12:45:41;12.60;73.10
16128;DHT22;8168;49.036;7.690;2023-04-06T12:48:14;12.70;69.70
16128;DHT22;8168;49.036;7.690;2023-04-06T12:51:03;12.60;69.60
16128;DHT22;8168;49.036;7.690;2023-04-06T12:53:34;12.60;73.90
16128;DHT22;8168;49.036;7.690;2023-04-06T12:56:16;12.60;72.10
16128;DHT22;8168;49.036;7.690;2023-04-06T12:58:47;12.60;71.80
16128;DHT22;8168;49.036;7.690;2023-04-06T13:01:18;12.60;71.00
16128;DHT22;8168;49.036;7.690;2023-04-06T13:03:50;12.50;71.50
16128;DHT22;8168;49.036;7.690;2023-04-06T13:06:20;12.60;70.40
16128;DHT22;8168;49.036;7.690;2023-04-06T13:08:52;12.60;71.20
16128;DHT22;8168;49.036;7.690;2023-04-06T13:11:22;12.50;73.00
16128;DHT22;8168;49.036;7.690;2023-04-06T13:13:56;12.40;71.50
16128;DHT22;8168;49.036;7.690;2023-04-06T13:16:27;12.40;71.70
16128;DHT22;8168;49.036;7.690;2023-04-06T13:18:57;12.40;72.90
16128;DHT22;8168;49.036;7.690;2023-04-06T13:21:28;12.40;73.80
16128;DHT22;8168;49.036;7.690;2023-04-06T13:23:59;12.40;73.60
16128;DHT22;8168;49.036;7.690;2023-04-06T13:26:30;12.40;72.20
16128;DHT22;8168;49.036;7.690;2023-04-06T13:29:00;12.40;72.80
16128;DHT22;8168;49.036;7.690;2023-04-06T13:31:32;12.40;72.90
16128;DHT22;8168;49.036;7.690;2023-04-06T13:34:03;12.40;72.90
16128;DHT22;8168;49.036;7.690;2023-04-06T13:36:36;12.30;72.20
16128;DHT22;8168;49.036;7.690;2023-04-06T13:39:07;12.20;72.60
16128;DHT22;8168;49.036;7.690;2023-04-06T13:41:37;12.30;73.70
16128;DHT22;8168;49.036;7.690;2023-04-06T13:44:08;12.30;73.20
16128;DHT22;8168;49.036;7.690;2023-04-06T13:46:39;12.30;73.50
16128;DHT22;8168;49.036;7.690;2023-04-06T13:49:10;12.40;73.30
16128;DHT22;8168;49.036;7.690;2023-04-06T13:51:40;12.30;71.40
16128;DHT22;8168;49.036;7.690;2023-04-06T13:54:11;12.40;71.90
16128;DHT22;8168;49.036;7.690;2023-04-06T13:56:42;12.40;72.90
16128;DHT22;8168;49.036;7.690;2023-04-06T13:59:12;12.40;72.10
16128;DHT22;8168;49.036;7.690;2023-04-06T14:01:43;12.30;70.90
16128;DHT22;8168;49.036;7.690;2023-04-06T14:04:14;12.30;72.20
16128;DHT22;8168;49.036;7.690;2023-04-06T14:06:45;12.30;72.80
16128;DHT22;8168;49.036;7.690;2023-04-06T14:09:16;12.30;73.60
16128;DHT22;8168;49.036;7.690;2023-04-06T14:11:46;12.40;72.90
16128;DHT22;8168;49.036;7.690;2023-04-06T14:14:17;12.30;73.80
16128;DHT22;8168;49.036;7.690;2023-04-06T14:16:48;12.30;73.60
16128;DHT22;8168;49.036;7.690;2023-04-06T14:19:19;12.30;73.40
16128;DHT22;8168;49.036;7.690;2023-04-06T14:21:49;12.40;74.00
16128;DHT22;8168;49.036;7.690;2023-04-06T14:24:20;12.40;73.70
16128;DHT22;8168;49.036;7.690;2023-04-06T14:26:51;12.30;74.00
16128;DHT22;8168;49.036;7.690;2023-04-06T14:29:23;12.30;74.00
16128;DHT22;8168;49.036;7.690;2023-04-06T14:31:53;12.30;75.00
16128;DHT22;8168;49.036;7.690;2023-04-06T14:34:30;12.20;76.80
16128;DHT22;8168;49.036;7.690;2023-04-06T14:37:00;12.20;76.00
16128;DHT22;8168;49.036;7.690;2023-04-06T14:39:31;12.20;74.60
16128;DHT22;8168;49.036;7.690;2023-04-06T14:42:01;12.20;75.30
16128;DHT22;8168;49.036;7.690;2023-04-06T14:44:33;12.30;76.00
16128;DHT22;8168;49.036;7.690;2023-04-06T14:47:04;12.20;75.80
16128;DHT22;8168;49.036;7.690;2023-04-06T14:49:35;12.10;75.40
16128;DHT22;8168;49.036;7.690;2023-04-06T14:52:06;12.10;76.10
16128;DHT22;8168;49.036;7.690;2023-04-06T14:54:36;12.10;76.10
16128;DHT22;8168;49.036;7.690;2023-04-06T14:57:07;12.00;75.70
16128;DHT22;8168;49.036;7.690;2023-04-06T14:59:38;12.00;77.30
16128;DHT22;8168;49.036;7.690;2023-04-06T15:02:08;12.10;76.30
16128;DHT22;8168;49.036;7.690;2023-04-06T15:04:39;12.00;76.00
16128;DHT22;8168;49.036;7.690;2023-04-06T15:07:10;12.10;76.30
16128;DHT22;8168;49.036;7.690;2023-04-06T15:09:41;10.70;74.40
16128;DHT22;8168;49.036;7.690;2023-04-06T15:12:11;10.50;73.70
16128;DHT22;8168;49.036;7.690;2023-04-06T15:14:42;12.00;76.70
16128;DHT22;8168;49.036;7.690;2023-04-06T15:17:13;11.90;77.60
16128;DHT22;8168;49.036;7.690;2023-04-06T15:19:43;11.80;77.90
16128;DHT22;8168;49.036;7.690;2023-04-06T15:22:14;11.70;78.80
16128;DHT22;8168;49.036;7.690;2023-04-06T15:24:45;11.60;79.60
16128;DHT22;8168;49.036;7.690;2023-04-06T15:27:15;11.70;81.00
16128;DHT22;8168;49.036;7.690;2023-04-06T15:29:46;11.60;81.50
16128;DHT22;8168;49.036;7.690;2023-04-06T15:32:16;11.60;82.70
16128;DHT22;8168;49.036;7.690;2023-04-06T15:34:47;11.50;83.20
16128;DHT22;8168;49.036;7.690;2023-04-06T15:37:17;11.40;83.20
16128;DHT22;8168;49.036;7.690;2023-04-06T15:39:48;11.40;84.60
16128;DHT22;8168;49.036;7.690;2023-04-06T15:42:19;11.40;85.60
16128;DHT22;8168;49.036;7.690;2023-04-06T15:44:49;11.40;86.40
16128;DHT22;8168;49.036;7.690;2023-04-06T15:47:20;11.30;88.90
16128;DHT22;8168;49.036;7.690;2023-04-06T15:49:51;11.20;89.70
16128;DHT22;8168;49.036;7.690;2023-04-06T15:52:21;11.10;90.30
16128;DHT22;8168;49.036;7.690;2023-04-06T15:54:53;11.00;90.40
16128;DHT22;8168;49.036;7.690;2023-04-06T15:57:23;11.00;91.00
16128;DHT22;8168;49.036;7.690;2023-04-06T15:59:54;11.00;91.40
16128;DHT22;8168;49.036;7.690;2023-04-06T16:02:25;10.90;91.80
16128;DHT22;8168;49.036;7.690;2023-04-06T16:04:57;10.90;91.40
16128;DHT22;8168;49.036;7.690;2023-04-06T16:07:29;10.90;92.00
16128;DHT22;8168;49.036;7.690;2023-04-06T16:10:00;10.90;92.30
16128;DHT22;8168;49.036;7.690;2023-04-06T16:12:31;10.80;92.70
16128;DHT22;8168;49.036;7.690;2023-04-06T16:15:05;10.70;92.50
16128;DHT22;8168;49.036;7.690;2023-04-06T16:17:36;10.70;94.70
16128;DHT22;8168;49.036;7.690;2023-04-06T16:20:07;10.60;94.40
16128;DHT22;8168;49.036;7.690;2023-04-06T16:22:38;10.50;94.20
16128;DHT22;8168;49.036;7.690;2023-04-06T16:25:09;10.50;94.70
16128;DHT22;8168;49.036;7.690;2023-04-06T16:27:40;10.50;95.10
16128;DHT22;8168;49.036;7.690;2023-04-06T16:30:11;10.50;95.40
16128;DHT22;8168;49.036;7.690;2023-04-06T16:32:42;10.50;95.40
16128;DHT22;8168;49.036;7.690;2023-04-06T16:35:13;10.50;95.60
16128;DHT22;8168;49.036;7.690;2023-04-06T16:37:44;10.60;96.00
16128;DHT22;8168;49.036;7.690;2023-04-06T16:40:15;10.60;96.50
16128;DHT22;8168;49.036;7.690;2023-04-06T16:42:46;10.60;96.60
16128;DHT22;8168;49.036;7.690;2023-04-06T16:45:17;10.60;96.60
16128;DHT22;8168;49.036;7.690;2023-04-06T16:47:48;10.60;97.00
16128;DHT22;8168;49.036;7.690;2023-04-06T16:50:19;10.50;97.40
16128;DHT22;8168;49.036;7.690;2023-04-06T16:52:50;10.50;97.70
16128;DHT22;8168;49.036;7.690;2023-04-06T16:55:21;10.60;97.70
16128;DHT22;8168;49.036;7.690;2023-04-06T16:57:54;10.60;98.00
16128;DHT22;8168;49.036;7.690;2023-04-06T17:00:25;10.60;99.20
16128;DHT22;8168;49.036;7.690;2023-04-06T17:02:56;10.50;99.90
16128;DHT22;8168;49.036;7.690;2023-04-06T17:05:26;10.40;99.60
16128;DHT22;8168;49.036;7.690;2023-04-06T17:07:57;10.40;99.80
16128;DHT22;8168;49.036;7.690;2023-04-06T17:10:27;10.40;99.90
16128;DHT22;8168;49.036;7.690;2023-04-06T17:12:58;10.40;99.90
16128;DHT22;8168;49.036;7.690;2023-04-06T17:15:28;10.50;99.90
16128;DHT22;8168;49.036;7.690;2023-04-06T17:18:01;10.40;99.90
16128;DHT22;8168;49.036;7.690;2023-04-06T17:20:31;10.30;99.90
16128;DHT22;8168;49.036;7.690;2023-04-06T17:23:04;10.30;99.90
16128;DHT22;8168;49.036;7.690;2023-04-06T17:25:35;10.30;99.90
16128;DHT22;8168;49.036;7.690;2023-04-06T17:28:05;10.30;99.90
16128;DHT22;8168;49.036;7.690;2023-04-06T17:30:36;10.30;99.90
16128;DHT22;8168;49.036;7.690;2023-04-06T17:33:08;10.30;99.90
16128;DHT22;8168;49.036;7.690;2023-04-06T17:35:39;10.20;99.90
16128;DHT22;8168;49.036;7.690;2023-04-06T17:38:11;10.20;99.90
16128;DHT22;8168;49.036;7.690;2023-04-06T17:40:41;10.20;99.90
16128;DHT22;8168;49.036;7.690;2023-04-06T17:43:12;10.10;99.90
16128;DHT22;8168;49.036;7.690;2023-04-06T17:45:43;10.10;99.90
16128;DHT22;8168;49.036;7.690;2023-04-06T17:48:13;10.10;99.90
16128;DHT22;8168;49.036;7.690;2023-04-06T17:50:44;10.10;99.90
16128;DHT22;8168;49.036;7.690;2023-04-06T17:53:15;10.10;99.90
16128;DHT22;8168;49.036;7.690;2023-04-06T17:55:48;10.10;99.90
16128;DHT22;8168;49.036;7.690;2023-04-06T17:58:19;10.10;99.90
16128;DHT22;8168;49.036;7.690;2023-04-06T18:00:51;10.10;99.90
16128;DHT22;8168;49.036;7.690;2023-04-06T18:03:22;10.00;99.90
16128;DHT22;8168;49.036;7.690;2023-04-06T18:05:52;10.00;99.90
16128;DHT22;8168;49.036;7.690;2023-04-06T18:08:24;9.80;99.90
16128;DHT22;8168;49.036;7.690;2023-04-06T18:10:54;9.70;99.90
16128;DHT22;8168;49.036;7.690;2023-04-06T18:13:26;9.70;99.90
16128;DHT22;8168;49.036;7.690;2023-04-06T18:15:59;9.70;99.90
16128;DHT22;8168;49.036;7.690;2023-04-06T18:18:30;9.60;99.90
16128;DHT22;8168;49.036;7.690;2023-04-06T18:21:07;9.60;99.90
16128;DHT22;8168;49.036;7.690;2023-04-06T18:23:37;9.60;99.90
16128;DHT22;8168;49.036;7.690;2023-04-06T18:26:15;9.50;99.90
16128;DHT22;8168;49.036;7.690;2023-04-06T18:28:47;9.50;99.90
16128;DHT22;8168;49.036;7.690;2023-04-06T18:31:17;9.50;99.90
16128;DHT22;8168;49.036;7.690;2023-04-06T18:33:50;9.50;99.90
16128;DHT22;8168;49.036;7.690;2023-04-06T18:36:21;9.40;99.90
16128;DHT22;8168;49.036;7.690;2023-04-06T18:38:52;9.30;99.90
16128;DHT22;8168;49.036;7.690;2023-04-06T18:41:22;9.30;99.90
16128;DHT22;8168;49.036;7.690;2023-04-06T18:43:53;9.30;99.90
16128;DHT22;8168;49.036;7.690;2023-04-06T18:46:24;9.20;99.90
16128;DHT22;8168;49.036;7.690;2023-04-06T18:48:54;9.10;99.90
16128;DHT22;8168;49.036;7.690;2023-04-06T18:51:29;9.10;99.90
16128;DHT22;8168;49.036;7.690;2023-04-06T18:54:00;9.10;99.90
16128;DHT22;8168;49.036;7.690;2023-04-06T18:56:34;9.10;99.90
16128;DHT22;8168;49.036;7.690;2023-04-06T18:59:06;8.90;99.90
16128;DHT22;8168;49.036;7.690;2023-04-06T19:01:38;8.90;99.90
16128;DHT22;8168;49.036;7.690;2023-04-06T19:04:12;8.80;99.90
16128;DHT22;8168;49.036;7.690;2023-04-06T19:06:43;8.80;99.90